Time;durP1;ratioP1;P1;durP2;ratioP2;P2;SDS_P1;SDS_P2;PMS_P1;PMS_P2;Temp;Humidity;BMP_temperature;BMP_pressure;BME280_temperature;BME280_humidity;BME280_pressure;Samples;Min_cycle;Max_cycle;Signal;HPM_P1;HPM_P2
2022/03/11 00:01:16;;;;;;;5.65;2.53;;;9.60;50.90;;;;;;5054663;28;20044;-74
2022/03/11 00:03:42;;;;;;;10.48;2.22;;;9.60;50.90;;;;;;5050350;28;20025;-74
2022/03/11 00:06:07;;;;;;;7.30;2.75;;;9.60;51.00;;;;;;5037525;28;20450;-74
2022/03/11 00:08:33;;;;;;;7.28;2.55;;;9.60;50.90;;;;;;5038976;28;20045;-74
2022/03/11 00:10:59;;;;;;;6.10;2.42;;;9.60;50.70;;;;;;5034589;28;20029;-74
2022/03/11 00:13:24;;;;;;;7.30;2.80;;;9.60;51.20;;;;;;5034178;28;20075;-74
2022/03/11 00:15:50;;;;;;;8.82;2.38;;;9.50;51.20;;;;;;5034057;28;20026;-74
2022/03/11 00:18:16;;;;;;;9.43;3.05;;;9.50;51.20;;;;;;5053635;28;20452;-74
2022/03/11 00:20:42;;;;;;;6.43;2.03;;;9.40;51.50;;;;;;5053074;28;20527;-74
2022/03/11 00:23:07;;;;;;;6.53;2.50;;;9.30;51.40;;;;;;5052899;28;20104;-74
2022/03/11 00:25:34;;;;;;;6.53;2.42;;;9.30;53.40;;;;;;5054015;28;20029;-74
2022/03/11 00:27:59;;;;;;;7.70;2.78;;;9.20;52.00;;;;;;5035385;28;20017;-74
2022/03/11 00:30:26;;;;;;;7.13;2.58;;;9.20;52.10;;;;;;5034256;28;20433;-74
2022/03/11 00:32:52;;;;;;;10.05;2.38;;;9.30;52.00;;;;;;5034044;28;20021;-74
2022/03/11 00:35:22;;;;;;;7.97;2.53;;;9.20;52.00;;;;;;5034384;28;20022;-74
2022/03/11 00:37:48;;;;;;;6.72;3.10;;;9.20;52.10;;;;;;5048667;28;20033;-74
2022/03/11 00:40:14;;;;;;;9.35;2.58;;;9.20;52.00;;;;;;5054235;28;20060;-74
2022/03/11 00:42:43;;;;;;;8.10;3.03;;;9.20;51.40;;;;;;5054420;28;20103;-74
2022/03/11 00:45:09;;;;;;;7.55;2.58;;;9.20;51.60;;;;;;5045683;28;20167;-74
2022/03/11 00:47:35;;;;;;;8.52;3.03;;;9.20;52.00;;;;;;5034080;28;20420;-74
2022/03/11 00:50:00;;;;;;;8.18;2.45;;;9.20;51.70;;;;;;5033954;28;20108;-74
2022/03/11 00:52:26;;;;;;;7.88;3.00;;;9.20;51.90;;;;;;5033605;28;20021;-74
2022/03/11 00:54:52;;;;;;;8.55;2.75;;;9.20;51.50;;;;;;5037712;28;20083;-74
2022/03/11 00:57:17;;;;;;;7.47;2.67;;;9.20;51.40;;;;;;5052273;28;20014;-74
2022/03/11 00:59:43;;;;;;;7.47;2.92;;;9.20;51.50;;;;;;5052203;28;20025;-74
2022/03/11 01:02:09;;;;;;;7.85;2.92;;;9.20;51.70;;;;;;5053790;28;20037;-74
2022/03/11 01:04:34;;;;;;;7.72;2.63;;;9.20;51.40;;;;;;5051328;28;20091;-74
2022/03/11 01:07:00;;;;;;;9.43;3.17;;;9.20;51.20;;;;;;5032067;28;20071;-74
2022/03/11 01:09:25;;;;;;;8.43;3.50;;;9.20;51.10;;;;;;5032172;28;20120;-74
2022/03/11 01:11:51;;;;;;;9.27;2.75;;;9.20;51.70;;;;;;5033614;28;20032;-74
2022/03/11 01:14:16;;;;;;;6.80;3.15;;;9.30;51.40;;;;;;5033517;28;20018;-74
2022/03/11 01:16:42;;;;;;;11.88;3.45;;;9.20;50.90;;;;;;5036296;28;20076;-74
2022/03/11 01:19:07;;;;;;;11.32;3.13;;;9.20;51.00;;;;;;5033675;28;20383;-74
2022/03/11 01:21:33;;;;;;;10.25;3.60;;;9.20;51.40;;;;;;5033252;28;20033;-74
2022/03/11 01:23:59;;;;;;;7.38;2.63;;;9.10;51.70;;;;;;5033332;28;20021;-74
2022/03/11 01:26:24;;;;;;;9.57;3.25;;;9.10;51.50;;;;;;5051014;28;20064;-74
2022/03/11 01:28:50;;;;;;;7.45;2.75;;;9.00;51.60;;;;;;5057364;28;20047;-74
2022/03/11 01:31:17;;;;;;;9.13;2.78;;;9.00;51.80;;;;;;5057606;28;20047;-74
2022/03/11 01:33:44;;;;;;;14.60;3.35;;;8.90;52.60;;;;;;5056736;28;20025;-74
2022/03/11 01:36:11;;;;;;;10.48;3.17;;;8.80;51.90;;;;;;5041835;28;20029;-74
2022/03/11 01:38:38;;;;;;;10.13;2.85;;;8.90;51.80;;;;;;5037057;28;20037;-74
2022/03/11 01:41:04;;;;;;;9.23;3.08;;;8.90;51.90;;;;;;5037259;28;20033;-74
2022/03/11 01:43:30;;;;;;;10.98;2.75;;;8.80;52.30;;;;;;5037195;28;20029;-74
2022/03/11 01:45:58;;;;;;;8.68;3.00;;;8.80;51.70;;;;;;5048687;28;20074;-75
2022/03/11 01:48:23;;;;;;;6.18;2.30;;;8.80;51.80;;;;;;5056901;28;20110;-75
2022/03/11 01:50:51;;;;;;;8.38;3.15;;;8.80;52.40;;;;;;5056943;28;20057;-75
2022/03/11 01:53:16;;;;;;;7.35;3.40;;;8.70;53.20;;;;;;5056852;28;20017;-75
2022/03/11 01:55:42;;;;;;;11.02;2.95;;;8.60;53.20;;;;;;5047024;28;20032;-75
2022/03/11 01:58:09;;;;;;;7.93;3.05;;;8.40;53.90;;;;;;5037087;28;20103;-74
2022/03/11 02:00:38;;;;;;;9.82;2.78;;;8.30;54.50;;;;;;5037083;28;20471;-74
2022/03/11 02:03:04;;;;;;;;;;;8.20;54.50;;;;;;5038340;28;20107;-74
2022/03/11 02:05:30;;;;;;;9.18;2.85;;;8.10;54.60;;;;;;5055272;28;20360;-75
2022/03/11 02:07:58;;;;;;;9.52;3.45;;;8.00;55.50;;;;;;5056793;28;20037;-75
2022/03/11 02:10:24;;;;;;;9.43;2.90;;;8.00;55.20;;;;;;5057470;28;20088;-75
2022/03/11 02:12:50;;;;;;;10.27;2.78;;;7.90;55.30;;;;;;5056799;28;20021;-75
2022/03/11 02:15:16;;;;;;;8.23;2.97;;;7.80;56.90;;;;;;5054752;28;20494;-75
2022/03/11 02:17:41;;;;;;;7.65;2.78;;;7.70;56.60;;;;;;5055066;28;20029;-75
2022/03/11 02:20:08;;;;;;;10.88;3.10;;;7.60;57.00;;;;;;5056372;28;20029;-74
2022/03/11 02:22:39;;;;;;;6.68;2.95;;;7.50;58.30;;;;;;5055165;28;20056;-74
2022/03/11 02:25:07;;;;;;;9.02;3.55;;;7.50;57.70;;;;;;5041927;28;20022;-75
2022/03/11 02:27:39;;;;;;;7.72;3.17;;;7.40;57.80;;;;;;5046878;28;20021;-74
2022/03/11 02:30:16;;;;;;;14.63;3.45;;;7.30;58.40;;;;;;5056635;28;20067;-74
2022/03/11 02:32:43;;;;;;;11.13;3.38;;;7.20;57.90;;;;;;5056805;28;20475;-74
2022/03/11 02:35:09;;;;;;;9.98;3.50;;;7.20;59.20;;;;;;5056607;28;20100;-74
2022/03/11 02:37:35;;;;;;;14.65;3.08;;;7.30;57.40;;;;;;5052653;28;20029;-74
2022/03/11 02:40:01;;;;;;;10.85;3.28;;;7.30;58.30;;;;;;5056001;28;20017;-74
2022/03/11 02:42:26;;;;;;;8.48;2.92;;;7.20;58.80;;;;;;5055998;28;20017;-74
2022/03/11 02:44:52;;;;;;;8.60;3.30;;;7.10;58.70;;;;;;5055853;28;20548;-74
2022/03/11 02:47:17;;;;;;;10.80;3.33;;;7.10;59.70;;;;;;5052966;28;20364;-74
2022/03/11 02:49:43;;;;;;;10.30;3.75;;;7.00;60.60;;;;;;5046537;28;20100;-74
2022/03/11 02:52:08;;;;;;;9.55;3.78;;;7.00;59.70;;;;;;5055698;28;20051;-74
2022/03/11 02:54:34;;;;;;;9.27;3.70;;;6.90;59.80;;;;;;5055640;28;20025;-74
2022/03/11 02:57:00;;;;;;;9.52;3.20;;;6.80;60.50;;;;;;5052233;28;20029;-74
2022/03/11 02:59:25;;;;;;;9.70;3.47;;;6.80;60.80;;;;;;5034461;28;20391;-74
2022/03/11 03:01:51;;;;;;;10.13;3.95;;;6.80;60.70;;;;;;5035833;28;20037;-74
2022/03/11 03:04:16;;;;;;;12.70;3.47;;;6.70;62.40;;;;;;5046320;28;20442;-74
2022/03/11 03:06:42;;;;;;;7.30;3.17;;;6.70;61.10;;;;;;5055401;28;20112;-75
2022/03/11 03:09:07;;;;;;;10.00;3.72;;;6.60;61.50;;;;;;5055733;28;20104;-76
2022/03/11 03:11:33;;;;;;;12.50;3.67;;;6.50;62.10;;;;;;5054124;28;20017;-75
2022/03/11 03:13:58;;;;;;;8.25;3.47;;;6.50;62.40;;;;;;5055682;28;20025;-75
2022/03/11 03:16:24;;;;;;;10.45;3.97;;;6.40;63.40;;;;;;5055297;28;20020;-75
2022/03/11 03:18:50;;;;;;;9.35;3.35;;;6.50;63.00;;;;;;5055492;28;20017;-76
2022/03/11 03:21:16;;;;;;;9.18;3.50;;;6.40;63.60;;;;;;5054058;28;20032;-75
2022/03/11 03:23:41;;;;;;;12.40;3.78;;;6.30;63.10;;;;;;5055693;28;20086;-75
2022/03/11 03:26:07;;;;;;;11.68;3.40;;;6.20;64.60;;;;;;5055087;28;20025;-75
2022/03/11 03:28:32;;;;;;;11.13;4.03;;;6.30;63.80;;;;;;5053785;28;20033;-75
2022/03/11 03:30:58;;;;;;;11.52;3.85;;;6.20;64.80;;;;;;5055249;28;20050;-75
2022/03/11 03:33:23;;;;;;;9.63;3.20;;;6.20;64.00;;;;;;5055073;28;20095;-75
2022/03/11 03:35:49;;;;;;;12.95;3.50;;;6.20;66.40;;;;;;5054979;28;20025;-75
2022/03/11 03:38:14;;;;;;;8.32;2.67;;;6.20;64.80;;;;;;5055040;28;20112;-75
2022/03/11 03:40:40;;;;;;;13.48;4.85;;;6.20;64.60;;;;;;5053870;28;20036;-75
2022/03/11 03:43:06;;;;;;;10.00;3.13;;;6.10;64.30;;;;;;5055394;28;20024;-75
2022/03/11 03:45:31;;;;;;;12.32;2.85;;;6.10;64.10;;;;;;5054781;28;20025;-75
2022/03/11 03:47:59;;;;;;;8.05;2.90;;;6.20;65.20;;;;;;5054675;28;20475;-75
2022/03/11 03:50:25;;;;;;;8.50;2.97;;;6.20;65.50;;;;;;5053892;28;20074;-75
2022/03/11 03:52:50;;;;;;;8.77;2.70;;;6.10;64.20;;;;;;5054908;28;20466;-75
2022/03/11 03:55:16;;;;;;;9.63;3.95;;;6.20;63.60;;;;;;5053340;28;20025;-75
2022/03/11 03:57:41;;;;;;;8.43;2.72;;;6.20;65.20;;;;;;5053447;28;20017;-75
2022/03/11 04:00:08;;;;;;;11.73;3.75;;;6.20;64.40;;;;;;5054566;28;20033;-75
2022/03/11 04:02:36;;;;;;;9.15;3.10;;;6.20;64.50;;;;;;5054380;28;20027;-75
2022/03/11 04:05:02;;;;;;;10.27;2.97;;;6.20;63.00;;;;;;5055033;28;20078;-75
2022/03/11 04:07:28;;;;;;;7.25;2.80;;;6.20;64.80;;;;;;5070240;28;20176;-75
2022/03/11 04:09:53;;;;;;;7.72;2.80;;;6.20;63.80;;;;;;5054734;28;20121;-75
2022/03/11 04:12:19;;;;;;;7.68;2.97;;;6.30;63.00;;;;;;5053176;28;20033;-75
2022/03/11 04:14:44;;;;;;;7.70;3.13;;;6.30;62.50;;;;;;5054475;28;20021;-75
2022/03/11 04:17:10;;;;;;;7.65;2.97;;;6.20;62.60;;;;;;5054792;28;20013;-75
2022/03/11 04:19:36;;;;;;;9.27;2.78;;;6.30;63.10;;;;;;5054847;28;20028;-75
2022/03/11 04:22:01;;;;;;;7.72;2.85;;;6.30;63.10;;;;;;5054328;28;20447;-75
2022/03/11 04:24:27;;;;;;;8.27;2.92;;;6.20;62.50;;;;;;5054555;28;20025;-75
2022/03/11 04:26:52;;;;;;;8.23;2.90;;;6.30;62.70;;;;;;5052987;28;20067;-75
2022/03/11 04:29:18;;;;;;;7.32;2.50;;;6.30;61.70;;;;;;5054326;28;20029;-75
2022/03/11 04:31:44;;;;;;;11.50;3.13;;;6.30;62.10;;;;;;5053040;28;20071;-75
2022/03/11 04:34:09;;;;;;;8.02;2.92;;;6.20;62.40;;;;;;5052799;28;20025;-75
2022/03/11 04:36:38;;;;;;;8.35;3.03;;;6.30;61.90;;;;;;5069205;28;20017;-76
2022/03/11 04:39:07;;;;;;;11.25;3.50;;;6.30;62.50;;;;;;5054873;28;20035;-76
2022/03/11 04:41:36;;;;;;;7.63;2.70;;;6.40;62.10;;;;;;5054288;28;20029;-75
2022/03/11 04:44:02;;;;;;;9.52;2.88;;;6.40;61.80;;;;;;5054058;28;20025;-75
2022/03/11 04:46:28;;;;;;;8.32;1.98;;;6.30;62.20;;;;;;5052502;28;20028;-74
2022/03/11 04:48:54;;;;;;;12.18;2.22;;;6.30;61.70;;;;;;5054316;28;20091;-75
2022/03/11 04:51:22;;;;;;;13.05;3.33;;;6.30;61.90;;;;;;5052700;28;20024;-75
2022/03/11 04:53:50;;;;;;;10.27;2.77;;;6.30;61.80;;;;;;5054220;28;20040;-75
2022/03/11 04:56:16;;;;;;;10.07;2.92;;;6.30;62.40;;;;;;5052675;28;20419;-75
2022/03/11 04:58:41;;;;;;;8.10;2.15;;;6.40;61.80;;;;;;5053901;28;20024;-75
2022/03/11 05:01:07;;;;;;;8.18;3.20;;;6.40;61.50;;;;;;5053432;28;20025;-75
2022/03/11 05:03:34;;;;;;;7.43;2.45;;;6.40;61.30;;;;;;5053576;28;20040;-75
2022/03/11 05:05:59;;;;;;;14.13;2.90;;;6.40;61.50;;;;;;5053477;28;20364;-75
2022/03/11 05:08:25;;;;;;;9.32;2.50;;;6.40;62.00;;;;;;5053402;28;20024;-75
2022/03/11 05:10:51;;;;;;;13.00;3.40;;;6.40;61.90;;;;;;5053302;28;20025;-75
2022/03/11 05:13:16;;;;;;;7.97;2.90;;;6.30;63.00;;;;;;5053578;28;20029;-75
2022/03/11 05:15:42;;;;;;;12.68;2.95;;;6.40;61.90;;;;;;5053267;28;20029;-75
2022/03/11 05:18:11;;;;;;;6.80;2.88;;;6.40;62.10;;;;;;5051940;28;20107;-75
2022/03/11 05:20:37;;;;;;;8.35;2.75;;;6.40;62.50;;;;;;5053518;28;20078;-75
2022/03/11 05:23:03;;;;;;;7.88;2.50;;;6.40;61.80;;;;;;5051972;28;20025;-75
2022/03/11 05:25:28;;;;;;;9.15;2.92;;;6.40;62.30;;;;;;5053169;28;20024;-75
2022/03/11 05:27:54;;;;;;;7.47;2.78;;;6.40;62.60;;;;;;5051887;28;20102;-75
2022/03/11 05:30:20;;;;;;;9.15;2.63;;;6.40;62.70;;;;;;5053096;28;20130;-75
2022/03/11 05:32:47;;;;;;;9.68;3.40;;;6.40;63.10;;;;;;5053243;28;20479;-75
2022/03/11 05:35:16;;;;;;;9.30;2.80;;;6.40;62.60;;;;;;5053387;28;20021;-74
2022/03/11 05:37:43;;;;;;;7.18;2.50;;;6.50;63.00;;;;;;5052881;28;20063;-75
2022/03/11 05:40:09;;;;;;;9.35;3.00;;;6.40;63.40;;;;;;5053288;28;20027;-75
2022/03/11 05:42:35;;;;;;;8.70;2.75;;;6.40;63.50;;;;;;5051863;28;20028;-75
2022/03/11 05:45:02;;;;;;;8.48;3.00;;;6.30;63.70;;;;;;5051721;28;20014;-75
2022/03/11 05:47:28;;;;;;;8.23;2.30;;;6.40;63.80;;;;;;5051669;28;20474;-76
2022/03/11 05:49:54;;;;;;;9.40;2.70;;;6.30;63.50;;;;;;5053032;28;20550;-75
2022/03/11 05:52:21;;;;;;;6.65;2.42;;;6.30;64.40;;;;;;5051692;28;20056;-76
2022/03/11 05:54:46;;;;;;;8.50;2.75;;;6.40;64.40;;;;;;5053255;28;20096;-75
2022/03/11 05:57:12;;;;;;;10.18;3.08;;;6.40;64.60;;;;;;5051626;28;20112;-75
2022/03/11 05:59:38;;;;;;;11.05;3.25;;;6.30;65.20;;;;;;5052990;28;20067;-75
2022/03/11 06:02:03;;;;;;;8.98;3.53;;;6.30;65.20;;;;;;5051569;28;20029;-75
2022/03/11 06:04:29;;;;;;;5.90;2.60;;;6.30;65.30;;;;;;5051717;28;20025;-75
2022/03/11 06:06:54;;;;;;;8.93;2.35;;;6.30;65.40;;;;;;5053299;28;20108;-75
2022/03/11 06:09:20;;;;;;;9.15;3.13;;;6.30;66.10;;;;;;5053021;28;20078;-75
2022/03/11 06:11:45;;;;;;;6.85;2.50;;;6.20;66.60;;;;;;5052709;28;20021;-75
2022/03/11 06:14:11;;;;;;;8.75;3.28;;;6.20;66.50;;;;;;5056577;28;20029;-75
2022/03/11 06:16:36;;;;;;;6.82;3.00;;;6.20;66.60;;;;;;5055267;28;20021;-75
2022/03/11 06:19:03;;;;;;;8.27;3.30;;;6.20;66.90;;;;;;5056752;28;20063;-75
2022/03/11 06:21:28;;;;;;;8.85;2.67;;;6.20;67.50;;;;;;5056824;28;20478;-75
2022/03/11 06:23:57;;;;;;;7.65;2.60;;;6.20;67.70;;;;;;5056952;28;20032;-74
2022/03/11 06:26:23;;;;;;;10.18;3.88;;;6.20;67.70;;;;;;5056395;28;20021;-74
2022/03/11 06:28:49;;;;;;;7.05;3.00;;;6.20;68.10;;;;;;5056527;28;20429;-72
2022/03/11 06:31:14;;;;;;;9.63;3.10;;;6.20;68.40;;;;;;5054916;28;20029;-74
2022/03/11 06:33:40;;;;;;;8.07;3.35;;;6.30;68.10;;;;;;5056603;28;20021;-73
2022/03/11 06:36:06;;;;;;;7.95;2.83;;;6.30;68.00;;;;;;5056268;28;20025;-74
2022/03/11 06:38:32;;;;;;;11.02;3.17;;;6.30;68.60;;;;;;5054743;28;20028;-74
2022/03/11 06:41:01;;;;;;;8.80;2.85;;;6.30;69.20;;;;;;5055085;28;20024;-74
2022/03/11 06:43:26;;;;;;;9.02;2.85;;;6.30;69.80;;;;;;5056515;28;20024;-74
2022/03/11 06:45:52;;;;;;;8.65;3.20;;;6.30;70.10;;;;;;5054743;28;20025;-74
2022/03/11 06:48:18;;;;;;;8.82;3.17;;;6.40;69.80;;;;;;5054664;28;20025;-75
2022/03/11 06:50:44;;;;;;;9.00;3.30;;;6.30;69.20;;;;;;5056297;28;20071;-74
2022/03/11 06:53:10;;;;;;;7.43;2.67;;;6.40;69.70;;;;;;5054777;28;20555;-74
2022/03/11 06:55:36;;;;;;;10.25;3.33;;;6.50;69.70;;;;;;5056055;28;20021;-74
2022/03/11 06:58:02;;;;;;;11.25;3.17;;;6.50;68.90;;;;;;5054657;28;20474;-75
2022/03/11 07:00:28;;;;;;;10.32;3.30;;;6.60;69.60;;;;;;5042527;28;20029;-72
2022/03/11 07:02:54;;;;;;;8.30;2.72;;;6.60;69.00;;;;;;5047030;28;20108;-74
2022/03/11 07:05:19;;;;;;;7.03;2.53;;;6.60;69.10;;;;;;5055404;28;20474;-77
2022/03/11 07:07:46;;;;;;;9.07;2.92;;;6.60;69.00;;;;;;5055620;28;20024;-75
2022/03/11 07:10:12;;;;;;;13.20;3.15;;;6.70;70.20;;;;;;5055498;28;20108;-76
2022/03/11 07:12:38;;;;;;;7.05;2.72;;;6.70;69.90;;;;;;5054374;28;20108;-75
2022/03/11 07:15:05;;;;;;;10.43;3.60;;;6.80;69.00;;;;;;5055577;28;20078;-76
2022/03/11 07:17:32;;;;;;;8.93;3.38;;;6.80;68.50;;;;;;5038311;28;20037;-76
2022/03/11 07:19:57;;;;;;;10.43;3.65;;;6.80;68.60;;;;;;5034519;28;20022;-76
2022/03/11 07:22:23;;;;;;;13.48;3.03;;;6.90;68.90;;;;;;5035486;28;20029;-76
2022/03/11 07:24:48;;;;;;;11.75;3.70;;;7.00;68.30;;;;;;5034874;28;20029;-76
2022/03/11 07:27:15;;;;;;;13.68;4.03;;;7.00;68.40;;;;;;5048653;28;20033;-76
2022/03/11 07:29:42;;;;;;;9.05;3.22;;;7.00;68.30;;;;;;5049112;28;20483;-76
2022/03/11 07:32:08;;;;;;;11.38;3.60;;;7.10;67.70;;;;;;5050641;28;20028;-76
2022/03/11 07:34:34;;;;;;;10.68;3.70;;;7.10;68.00;;;;;;5054142;28;20025;-76
2022/03/11 07:37:00;;;;;;;10.88;3.92;;;7.20;67.90;;;;;;5053702;28;20013;-76
2022/03/11 07:39:26;;;;;;;11.98;4.25;;;7.20;67.30;;;;;;5040201;28;20075;-76
2022/03/11 07:41:51;;;;;;;11.15;3.88;;;7.30;67.70;;;;;;5036004;28;20026;-76
2022/03/11 07:44:18;;;;;;;9.60;3.53;;;7.50;67.70;;;;;;5037347;28;20537;-76
2022/03/11 07:46:44;;;;;;;11.13;3.97;;;7.40;68.40;;;;;;5040275;28;20038;-76
2022/03/11 07:49:11;;;;;;;9.00;3.58;;;7.50;66.70;;;;;;5053062;28;20082;-76
2022/03/11 07:51:36;;;;;;;9.55;3.67;;;7.50;66.80;;;;;;5025370;28;20495;-76
2022/03/11 07:54:02;;;;;;;10.48;4.35;;;7.60;67.10;;;;;;5015108;28;20018;-76
2022/03/11 07:56:29;;;;;;;9.88;3.65;;;7.70;66.10;;;;;;5014666;28;20513;-76
2022/03/11 07:58:56;;;;;;;9.82;3.13;;;7.70;65.50;;;;;;5045403;28;20437;-76
2022/03/11 08:01:22;;;;;;;11.10;3.58;;;7.80;65.00;;;;;;5051254;28;20039;-76
2022/03/11 08:03:48;;;;;;;10.30;3.40;;;7.90;64.80;;;;;;5047758;28;20056;-76
2022/03/11 08:06:14;;;;;;;12.55;4.60;;;7.90;65.10;;;;;;5054306;28;20074;-75
2022/03/11 08:08:41;;;;;;;8.75;3.70;;;8.00;64.70;;;;;;5054291;28;20098;-76
2022/03/11 08:11:07;;;;;;;13.20;4.35;;;8.10;65.00;;;;;;5054328;28;20111;-76
2022/03/11 08:13:36;;;;;;;11.73;4.53;;;8.10;64.60;;;;;;5053646;28;20130;-76
2022/03/11 08:16:02;;;;;;;8.90;3.67;;;8.20;64.20;;;;;;5041411;28;20026;-76
2022/03/11 08:18:28;;;;;;;12.77;4.80;;;8.30;64.20;;;;;;5034467;28;20053;-75
2022/03/11 08:20:54;;;;;;;9.88;3.70;;;8.30;64.10;;;;;;5032894;28;20025;-75
2022/03/11 08:23:20;;;;;;;11.30;3.85;;;8.40;63.60;;;;;;5033043;28;20465;-75
2022/03/11 08:25:46;;;;;;;8.25;3.55;;;8.50;62.90;;;;;;5034565;28;20368;-76
2022/03/11 08:28:13;;;;;;;14.98;3.53;;;8.50;62.80;;;;;;5034093;28;20453;-76
2022/03/11 08:30:40;;;;;;;13.50;4.50;;;8.60;63.10;;;;;;5034057;28;20108;-76
2022/03/11 08:33:05;;;;;;;8.38;2.97;;;8.70;61.90;;;;;;5034053;28;20022;-76
2022/03/11 08:35:31;;;;;;;10.25;4.13;;;8.70;62.40;;;;;;5033453;28;20124;-76
2022/03/11 08:37:58;;;;;;;14.30;4.60;;;8.80;62.00;;;;;;5033797;28;20029;-76
2022/03/11 08:40:26;;;;;;;10.38;4.15;;;8.80;62.00;;;;;;5034273;28;20025;-76
2022/03/11 08:42:53;;;;;;;9.07;3.33;;;8.90;61.60;;;;;;5039677;28;20074;-76
2022/03/11 08:45:22;;;;;;;14.40;4.97;;;8.90;61.20;;;;;;5053861;28;20032;-76
2022/03/11 08:47:51;;;;;;;11.23;4.07;;;9.00;61.20;;;;;;5054042;28;20096;-76
2022/03/11 08:50:17;;;;;;;;;;;9.00;61.40;;;;;;5048998;28;20029;-76
2022/03/11 08:52:43;;;;;;;9.80;4.00;;;9.10;61.10;;;;;;5053675;28;19951;-76
2022/03/11 08:55:10;;;;;;;11.73;4.18;;;9.30;60.20;;;;;;5053524;28;20021;-76
2022/03/11 08:57:35;;;;;;;11.80;4.30;;;9.30;60.50;;;;;;5053593;28;20398;-76
2022/03/11 09:00:08;;;;;;;14.80;4.38;;;9.40;60.40;;;;;;5034267;28;20031;-76
2022/03/11 09:02:37;;;;;;;15.48;5.45;;;9.50;59.50;;;;;;5034116;28;20033;-76
2022/03/11 09:05:04;;;;;;;13.40;3.70;;;9.60;59.30;;;;;;5034010;28;20017;-76
2022/03/11 09:07:29;;;;;;;12.95;5.40;;;9.70;59.40;;;;;;5047042;28;20056;-76
2022/03/11 09:09:55;;;;;;;10.57;4.50;;;9.70;59.90;;;;;;5052884;28;20036;-76
2022/03/11 09:12:21;;;;;;;11.00;4.32;;;9.80;59.70;;;;;;5054454;28;20484;-76
2022/03/11 09:14:47;;;;;;;11.65;3.75;;;9.90;58.90;;;;;;5050297;28;20021;-76
2022/03/11 09:17:12;;;;;;;11.55;4.90;;;10.00;58.80;;;;;;5033860;28;20089;-76
2022/03/11 09:19:38;;;;;;;12.32;4.97;;;10.10;58.80;;;;;;5036740;28;20014;-76
2022/03/11 09:22:03;;;;;;;10.95;4.20;;;10.20;58.30;;;;;;5033626;28;20127;-76
2022/03/11 09:24:29;;;;;;;12.27;5.35;;;10.30;59.00;;;;;;5033786;28;20108;-76
2022/03/11 09:26:55;;;;;;;17.88;5.10;;;10.30;57.60;;;;;;5066765;28;20021;-75
2022/03/11 09:29:23;;;;;;;12.43;4.03;;;10.40;57.60;;;;;;5039018;28;20053;-76
2022/03/11 09:31:49;;;;;;;12.05;3.92;;;10.40;58.40;;;;;;5049151;28;20471;-75
2022/03/11 09:34:14;;;;;;;11.02;3.78;;;10.40;58.10;;;;;;5054076;28;20071;-75
2022/03/11 09:36:42;;;;;;;11.38;4.80;;;10.50;57.70;;;;;;5053948;28;20032;-75
2022/03/11 09:39:07;;;;;;;11.45;5.82;;;10.50;58.50;;;;;;5043710;28;20113;-76
2022/03/11 09:41:35;;;;;;;13.23;5.40;;;10.50;58.60;;;;;;5032495;28;20069;-76
2022/03/11 09:44:02;;;;;;;11.05;3.78;;;10.60;58.30;;;;;;5034251;28;20083;-76
2022/03/11 09:46:29;;;;;;;13.82;5.00;;;10.70;58.10;;;;;;5033527;28;20017;-75
2022/03/11 09:48:55;;;;;;;14.45;5.53;;;10.90;57.40;;;;;;5038455;28;20118;-75
2022/03/11 09:51:20;;;;;;;11.27;3.92;;;10.90;57.90;;;;;;5037075;28;20045;-75
2022/03/11 09:53:46;;;;;;;13.40;5.07;;;10.90;57.30;;;;;;5036498;28;20044;-75
2022/03/11 09:56:11;;;;;;;12.43;5.65;;;10.90;57.60;;;;;;5036684;28;20021;-75
2022/03/11 09:58:37;;;;;;;14.55;4.85;;;11.00;57.80;;;;;;5036075;28;20103;-75
2022/03/11 10:01:04;;;;;;;13.55;5.10;;;11.10;58.00;;;;;;5036491;28;20093;-76
2022/03/11 10:03:30;;;;;;;13.45;5.43;;;11.20;57.90;;;;;;5041009;28;20375;-76
2022/03/11 10:05:56;;;;;;;11.45;4.90;;;11.30;58.00;;;;;;5057456;28;20035;-75
2022/03/11 10:08:32;;;;;;;13.85;5.75;;;11.40;57.40;;;;;;5057045;28;20032;-75
2022/03/11 10:11:26;;;;;;;11.90;4.22;;;11.50;57.20;;;;;;5057751;28;20482;-75
2022/03/11 10:13:54;;;;;;;15.88;4.90;;;11.50;57.20;;;;;;5058100;28;20023;-75
2022/03/11 10:16:25;;;;;;;13.80;5.17;;;11.60;57.60;;;;;;5057392;28;20029;-76
2022/03/11 10:19:02;;;;;;;13.07;5.38;;;11.60;57.40;;;;;;5057138;28;20756;-76
2022/03/11 10:21:36;;;;;;;11.88;4.95;;;11.70;57.60;;;;;;5057207;28;20021;-75
2022/03/11 10:24:05;;;;;;;14.18;5.28;;;11.80;57.50;;;;;;5055659;28;20482;-75
2022/03/11 10:26:42;;;;;;;11.00;5.13;;;12.00;57.30;;;;;;5057017;28;20031;-76
2022/03/11 10:29:10;;;;;;;14.15;5.35;;;12.10;57.00;;;;;;5057112;28;20474;-75
2022/03/11 10:31:42;;;;;;;11.57;5.00;;;12.10;56.60;;;;;;5057542;28;20439;-76
2022/03/11 10:34:15;;;;;;;13.75;5.13;;;12.20;56.60;;;;;;5056511;28;20025;-76
2022/03/11 10:36:49;;;;;;;14.57;4.47;;;12.30;56.80;;;;;;5054988;28;20025;-76
2022/03/11 10:39:15;;;;;;;12.30;5.15;;;12.40;56.30;;;;;;5055161;28;20490;-76
2022/03/11 10:41:41;;;;;;;12.55;4.90;;;12.40;56.00;;;;;;5057186;28;20055;-76
2022/03/11 10:44:09;;;;;;;13.63;4.85;;;12.40;56.00;;;;;;5056892;28;20577;-76
2022/03/11 10:46:35;;;;;;;14.38;5.07;;;12.50;55.90;;;;;;5054876;28;20033;-76
2022/03/11 10:49:01;;;;;;;13.25;5.15;;;12.60;56.20;;;;;;5055019;28;20028;-76
2022/03/11 10:51:33;;;;;;;14.20;5.90;;;12.60;55.90;;;;;;5056185;28;20029;-76
2022/03/11 10:54:00;;;;;;;11.90;4.95;;;12.70;56.00;;;;;;5056118;28;20021;-76
2022/03/11 10:56:39;;;;;;;11.38;5.18;;;12.80;56.10;;;;;;5055810;28;20028;-76
2022/03/11 10:59:11;;;;;;;13.57;5.22;;;13.00;55.90;;;;;;5053892;28;20104;-76
2022/03/11 11:01:37;;;;;;;12.73;5.60;;;13.10;55.40;;;;;;5056325;28;20032;-76
2022/03/11 11:04:05;;;;;;;14.95;5.85;;;13.20;55.10;;;;;;5055671;28;20049;-76
2022/03/11 11:06:30;;;;;;;13.85;5.35;;;13.20;54.70;;;;;;5055760;28;20091;-75
2022/03/11 11:08:56;;;;;;;21.15;5.78;;;13.20;54.80;;;;;;5071290;28;20029;-75
2022/03/11 11:11:22;;;;;;;14.27;5.15;;;13.30;55.10;;;;;;5054427;28;20083;-76
2022/03/11 11:13:48;;;;;;;11.30;4.40;;;13.30;55.10;;;;;;5055507;28;20100;-76
2022/03/11 11:16:16;;;;;;;12.23;5.10;;;13.40;55.10;;;;;;5055535;28;20029;-76
2022/03/11 11:18:46;;;;;;;13.40;6.05;;;13.60;54.90;;;;;;5056230;28;20021;-76
2022/03/11 11:21:14;;;;;;;14.65;5.72;;;13.60;54.80;;;;;;5055831;28;20386;-76
2022/03/11 11:23:40;;;;;;;14.93;5.70;;;13.60;55.10;;;;;;5055390;28;20052;-76
2022/03/11 11:26:10;;;;;;;10.55;5.25;;;13.70;54.80;;;;;;5055141;28;20029;-76
2022/03/11 11:28:37;;;;;;;13.60;5.65;;;13.90;55.10;;;;;;5055083;28;20028;-76
2022/03/11 11:31:03;;;;;;;9.77;4.85;;;14.10;54.50;;;;;;5055172;28;20542;-76
2022/03/11 11:33:29;;;;;;;12.70;4.80;;;14.20;54.30;;;;;;5055281;28;20020;-76
2022/03/11 11:35:57;;;;;;;15.75;5.20;;;14.40;53.30;;;;;;5055706;28;20029;-76
2022/03/11 11:38:33;;;;;;;11.87;5.37;;;14.40;53.60;;;;;;5054781;28;20547;-76
2022/03/11 11:41:01;;;;;;;15.95;5.90;;;14.40;53.40;;;;;;5053677;28;20505;-76
2022/03/11 11:43:31;;;;;;;12.13;5.53;;;14.50;52.50;;;;;;5054851;28;20021;-76
2022/03/11 11:46:08;;;;;;;14.13;4.28;;;14.50;52.80;;;;;;5054659;28;20266;-76
2022/03/11 11:48:42;;;;;;;15.60;5.72;;;14.50;53.50;;;;;;5053308;28;20478;-76
2022/03/11 11:51:15;;;;;;;14.10;5.13;;;14.70;53.00;;;;;;5054843;28;20475;-76
2022/03/11 11:53:56;;;;;;;12.35;5.30;;;14.80;52.60;;;;;;5054593;28;20090;-76
2022/03/11 11:56:30;;;;;;;11.60;5.57;;;15.10;52.80;;;;;;5053548;28;20459;-76
2022/03/11 11:58:58;;;;;;;13.38;5.07;;;15.30;52.20;;;;;;5053211;28;20025;-76
2022/03/11 12:01:49;;;;;;;12.82;5.10;;;15.40;51.10;;;;;;5053106;28;20055;-76
2022/03/11 12:04:27;;;;;;;12.02;4.75;;;15.60;50.20;;;;;;5054356;28;20028;-76
2022/03/11 12:07:03;;;;;;;12.48;5.88;;;15.50;50.30;;;;;;5054257;28;20082;-76
2022/03/11 12:09:41;;;;;;;10.20;5.20;;;15.50;50.70;;;;;;5053734;28;20033;-76
2022/03/11 12:12:24;;;;;;;13.40;5.45;;;15.50;50.50;;;;;;5052745;28;20025;-76
2022/03/11 12:15:05;;;;;;;15.13;6.22;;;15.60;50.60;;;;;;5052852;28;20029;-76
2022/03/11 12:17:59;;;;;;;16.40;6.47;;;15.70;50.80;;;;;;5053958;28;20067;-76
2022/03/11 12:20:24;;;;;;;12.85;5.63;;;15.90;50.00;;;;;;5054339;28;20100;-76
2022/03/11 12:23:19;;;;;;;15.13;6.18;;;16.00;49.40;;;;;;5052774;28;20063;-76
2022/03/11 12:25:54;;;;;;;13.75;5.55;;;16.10;49.10;;;;;;5045509;28;20060;-76
2022/03/11 12:28:35;;;;;;;16.67;5.25;;;16.30;49.60;;;;;;5054170;28;20013;-76
2022/03/11 12:31:08;;;;;;;12.57;4.40;;;16.50;49.20;;;;;;5053811;28;20025;-76
2022/03/11 12:33:37;;;;;;;18.38;6.10;;;16.60;48.50;;;;;;5054170;28;20044;-76
2022/03/11 12:36:10;;;;;;;13.38;6.05;;;16.80;49.00;;;;;;5054092;28;20493;-74
2022/03/11 12:38:39;;;;;;;16.65;5.82;;;17.10;47.50;;;;;;5053530;28;20412;-74
2022/03/11 12:41:11;;;;;;;13.35;4.82;;;17.30;47.50;;;;;;5054245;28;20017;-74
2022/03/11 12:43:38;;;;;;;14.88;5.20;;;17.10;47.50;;;;;;5053739;28;20052;-74
2022/03/11 12:46:05;;;;;;;20.02;6.78;;;17.10;47.40;;;;;;5053883;28;20033;-74
2022/03/11 12:48:39;;;;;;;13.57;5.00;;;17.10;47.90;;;;;;5053565;28;20495;-74
2022/03/11 12:51:10;;;;;;;14.15;6.03;;;17.20;47.30;;;;;;5053451;28;20112;-74